createdAt,value
2019-01-14T00:00:36.280Z,98965.10
2019-01-14T00:03:04.530Z,98969.81
2019-01-14T00:05:33.931Z,98970.56
2019-01-14T00:08:04.868Z,98963.73
2019-01-14T00:10:35.980Z,98968.52
2019-01-14T00:13:04.820Z,98967.67
2019-01-14T00:15:32.859Z,98971.51
2019-01-14T00:18:01.470Z,98977.11
2019-01-14T00:20:31.142Z,98979.60
2019-01-14T00:22:59.814Z,98989.95
2019-01-14T00:25:28.440Z,98994.24
2019-01-14T00:27:57.097Z,98995.98
2019-01-14T00:30:26.120Z,98994.79
2019-01-14T00:32:54.792Z,99001.27
2019-01-14T00:35:23.602Z,99011.56
2019-01-14T00:37:52.278Z,99013.34
2019-01-14T00:40:21.587Z,99018.07
2019-01-14T00:42:50.671Z,99025.37
2019-01-14T00:45:19.239Z,99039.94
2019-01-14T00:47:48.265Z,99045.98
2019-01-14T00:50:16.948Z,99054.20
2019-01-14T00:52:48.065Z,99048.33
2019-01-14T00:55:16.848Z,99062.55
2019-01-14T00:57:48.681Z,99077.09
2019-01-14T01:00:20.529Z,99080.97
2019-01-14T01:02:49.362Z,99081.90
2019-01-14T01:05:18.228Z,99090.55
2019-01-14T01:07:46.726Z,99092.66
2019-01-14T01:10:15.732Z,99098.24
2019-01-14T01:12:45.082Z,99099.09
2019-01-14T01:15:15.203Z,99110.21
2019-01-14T01:17:43.940Z,99105.53
2019-01-14T01:20:16.364Z,99114.06
2019-01-14T01:22:45.560Z,99122.59
2019-01-14T01:25:14.278Z,99121.34
2019-01-14T01:27:43.593Z,99129.06
2019-01-14T01:30:17.215Z,99135.06
2019-01-14T01:32:46.019Z,99139.34
2019-01-14T01:35:16.452Z,99146.69
2019-01-14T01:37:47.873Z,99143.59
2019-01-14T01:40:18.298Z,99144.87
2019-01-14T01:42:47.079Z,99154.37
2019-01-14T01:45:17.208Z,99156.55
2019-01-14T01:47:46.194Z,99172.79
2019-01-14T01:50:17.007Z,99180.58
2019-01-14T01:52:48.214Z,99186.09
2019-01-14T01:55:16.927Z,99189.92
2019-01-14T01:57:45.872Z,99193.41
2019-01-14T02:00:18.400Z,99203.27
2019-01-14T02:02:47.943Z,99204.56
2019-01-14T02:05:19.825Z,99211.87
2019-01-14T02:07:49.257Z,99221.70
2019-01-14T02:10:20.943Z,99226.49
2019-01-14T02:12:53.387Z,99228.62
2019-01-14T02:15:23.097Z,99232.02
2019-01-14T02:17:52.063Z,99241.44
2019-01-14T02:20:23.716Z,99241.45
2019-01-14T02:22:52.250Z,99236.73
2019-01-14T02:25:22.036Z,99233.78
2019-01-14T02:27:50.821Z,99245.74
2019-01-14T02:30:23.200Z,99251.73
2019-01-14T02:32:51.974Z,99246.18
2019-01-14T02:35:21.268Z,99256.44
2019-01-14T02:37:50.174Z,99267.55
2019-01-14T02:40:22.440Z,99272.67
2019-01-14T02:42:51.180Z,99275.67
2019-01-14T02:45:20.224Z,99283.83
2019-01-14T02:47:51.881Z,99285.49
2019-01-14T02:50:22.167Z,99295.75
2019-01-14T02:52:50.840Z,99300.02
2019-01-14T02:55:19.548Z,99307.77
2019-01-14T02:57:48.477Z,99307.34
2019-01-14T03:00:27.059Z,99314.17
2019-01-14T03:02:55.911Z,99314.59
2019-01-14T03:05:24.515Z,99319.25
2019-01-14T03:07:53.643Z,99313.69
2019-01-14T03:10:22.391Z,99310.68
2019-01-14T03:12:51.078Z,99320.05
2019-01-14T03:15:20.790Z,99320.51
2019-01-14T03:17:49.470Z,99326.07
2019-01-14T03:20:18.144Z,99324.80
2019-01-14T03:22:47.227Z,99338.48
2019-01-14T03:25:16.092Z,99338.98
2019-01-14T03:27:44.949Z,99339.05
2019-01-14T03:30:15.841Z,99342.43
2019-01-14T03:32:45.280Z,99344.53
2019-01-14T03:35:14.336Z,99353.07
2019-01-14T03:37:46.396Z,99356.49
2019-01-14T03:40:18.243Z,99356.53
2019-01-14T03:42:47.414Z,99371.91
2019-01-14T03:45:16.512Z,99367.66
2019-01-14T03:47:46.783Z,99371.91
2019-01-14T03:50:17.679Z,99370.23
2019-01-14T03:52:50.550Z,99383.89
2019-01-14T03:55:19.655Z,99394.98
2019-01-14T03:57:51.390Z,99395.83
2019-01-14T04:00:20.602Z,99408.64
2019-01-14T04:02:49.806Z,99401.79
2019-01-14T04:05:19.178Z,99409.91
2019-01-14T04:07:47.803Z,99415.45
2019-01-14T04:10:17.411Z,99410.33
2019-01-14T04:12:46.588Z,99422.30
2019-01-14T04:15:17.538Z,99409.06
2019-01-14T04:17:47.322Z,99415.45
2019-01-14T04:20:19.721Z,99419.30
2019-01-14T04:22:48.583Z,99418.03
2019-01-14T04:25:17.272Z,99426.12
2019-01-14T04:27:48.925Z,99430.39
2019-01-14T04:30:20.558Z,99437.23
2019-01-14T04:32:49.523Z,99445.32
2019-01-14T04:35:19.467Z,99426.95
2019-01-14T04:37:51.328Z,99439.33
2019-01-14T04:40:20.052Z,99440.19
2019-01-14T04:42:48.880Z,99439.73
2019-01-14T04:45:17.969Z,99447.84
2019-01-14T04:47:46.712Z,99449.55
2019-01-14T04:50:21.841Z,99450.41
2019-01-14T04:52:50.696Z,99457.24
2019-01-14T04:55:19.788Z,99455.95
2019-01-14T04:57:48.933Z,99461.52
2019-01-14T05:00:20.280Z,99464.94
2019-01-14T05:02:48.966Z,99462.36
2019-01-14T05:05:21.141Z,99464.49
2019-01-14T05:07:50.072Z,99465.80
2019-01-14T05:10:19.122Z,99467.50
2019-01-14T05:12:51.073Z,99461.95
2019-01-14T05:15:20.257Z,99458.96
2019-01-14T05:17:48.978Z,99466.64
2019-01-14T05:20:22.427Z,99463.62
2019-01-14T05:22:51.976Z,99473.88
2019-01-14T05:25:23.535Z,99476.88
2019-01-14T05:27:55.489Z,99485.41
2019-01-14T05:30:26.629Z,99487.98
2019-01-14T05:32:55.670Z,99491.36
2019-01-14T05:35:24.259Z,99495.16
2019-01-14T05:37:52.922Z,99498.18
2019-01-14T05:40:25.722Z,99505.02
2019-01-14T05:42:54.323Z,99508.42
2019-01-14T05:45:24.476Z,99511.84
2019-01-14T05:47:53.041Z,99515.27
2019-01-14T05:50:24.703Z,99522.10
2019-01-14T05:52:54.211Z,99527.64
2019-01-14T05:55:26.049Z,99533.20
2019-01-14T05:57:55.195Z,99533.65
2019-01-14T06:00:36.444Z,99537.91
2019-01-14T06:03:06.277Z,99540.86
2019-01-14T06:05:35.971Z,99543.44
2019-01-14T06:08:04.669Z,99547.30
2019-01-14T06:10:36.386Z,99550.31
2019-01-14T06:13:05.594Z,99549.02
2019-01-14T06:15:38.505Z,99552.03
2019-01-14T06:18:07.519Z,99565.28
2019-01-14T06:20:36.853Z,99566.53
2019-01-14T06:23:05.596Z,99565.27
2019-01-14T06:25:34.434Z,99576.35
2019-01-14T06:28:04.015Z,99576.33
2019-01-14T06:30:35.611Z,99587.01
2019-01-14T06:33:04.898Z,99581.89
2019-01-14T06:35:33.522Z,99590.81
2019-01-14T06:38:02.139Z,99583.17
2019-01-14T06:40:34.448Z,99595.11
2019-01-14T06:43:04.748Z,99584.88
2019-01-14T06:45:32.910Z,99593.83
2019-01-14T06:48:04.762Z,99596.38
2019-01-14T06:50:34.052Z,99595.97
2019-01-14T06:53:02.715Z,99604.06
2019-01-14T06:55:32.037Z,99597.63
2019-01-14T06:58:01.227Z,99601.01
2019-01-14T07:00:30.242Z,99598.41
2019-01-14T07:03:02.062Z,99604.36
2019-01-14T07:05:32.152Z,99612.55
2019-01-14T07:08:03.692Z,99617.67
2019-01-14T07:10:33.183Z,99618.12
2019-01-14T07:13:01.835Z,99623.65
2019-01-14T07:15:31.121Z,99627.94
2019-01-14T07:17:59.710Z,99631.75
2019-01-14T07:20:28.410Z,99632.59
2019-01-14T07:22:56.989Z,99639.44
2019-01-14T07:25:25.687Z,99645.42
2019-01-14T07:27:53.729Z,99647.55
2019-01-14T07:30:22.630Z,99653.16
2019-01-14T07:32:54.617Z,99650.13
2019-01-14T07:35:23.698Z,99657.83
2019-01-14T07:37:52.381Z,99671.52
2019-01-14T07:40:21.674Z,99661.72
2019-01-14T07:42:51.248Z,99664.70
2019-01-14T07:45:21.414Z,99669.83
2019-01-14T07:47:50.557Z,99676.69
2019-01-14T07:50:19.797Z,99679.67
2019-01-14T07:52:51.616Z,99680.97
2019-01-14T07:55:21.096Z,99686.52
2019-01-14T07:57:50.898Z,99702.73
2019-01-14T08:00:23.760Z,99709.13
2019-01-14T08:02:52.517Z,99715.03
2019-01-14T08:05:24.738Z,99718.36
2019-01-14T08:07:53.531Z,99715.38
2019-01-14T08:10:21.725Z,99736.27
2019-01-14T08:12:52.749Z,99736.73
2019-01-14T08:15:29.056Z,99737.95
2019-01-14T08:18:06.148Z,99740.91
2019-01-14T08:20:37.102Z,99744.70
2019-01-14T08:23:06.173Z,99745.52
2019-01-14T08:25:35.517Z,99750.11
2019-01-14T08:28:03.862Z,99756.52
2019-01-14T08:30:32.362Z,99764.68
2019-01-14T08:33:01.778Z,99770.73
2019-01-14T08:35:31.235Z,99762.62
2019-01-14T08:38:00.288Z,99765.95
2019-01-14T08:40:32.248Z,99772.95
2019-01-14T08:43:00.937Z,99780.69
2019-01-14T08:45:29.405Z,99796.64
2019-01-14T08:47:59.128Z,99789.88
2019-01-14T08:50:28.365Z,99802.69
2019-01-14T08:52:56.423Z,99808.86
2019-01-14T08:55:24.850Z,99808.88
2019-01-14T08:57:54.769Z,99813.55
2019-01-14T09:00:23.688Z,99820.86
2019-01-14T09:02:56.034Z,99826.00
2019-01-14T09:05:24.347Z,99838.79
2019-01-14T09:07:53.012Z,99832.34
2019-01-14T09:10:26.188Z,99842.98
2019-01-14T09:12:54.987Z,99842.80
2019-01-14T09:15:23.657Z,99845.05
2019-01-14T09:18:02.376Z,99844.55
2019-01-14T09:20:25.765Z,99858.59
2019-01-14T09:22:54.465Z,99858.25
2019-01-14T09:25:23.188Z,99855.98
2019-01-14T09:27:52.892Z,99864.41
2019-01-14T09:30:23.240Z,99852.55
2019-01-14T09:32:52.157Z,99865.34
2019-01-14T09:35:20.988Z,99867.95
2019-01-14T09:37:50.055Z,99865.78
2019-01-14T09:40:20.042Z,99858.08
2019-01-14T09:42:49.830Z,99860.88
2019-01-14T09:45:18.444Z,99857.91
2019-01-14T09:47:50.941Z,99860.54
2019-01-14T09:50:20.961Z,99865.10
2019-01-14T09:52:52.980Z,99871.67
2019-01-14T09:55:22.298Z,99863.56
2019-01-14T09:57:51.608Z,99872.52
2019-01-14T10:00:20.781Z,99873.84
2019-01-14T10:02:55.545Z,99870.66
2019-01-14T10:05:24.031Z,99875.02
2019-01-14T10:07:53.197Z,99887.98
2019-01-14T10:10:21.900Z,99884.73
2019-01-14T10:12:50.785Z,99884.95
2019-01-14T10:15:21.710Z,99886.24
2019-01-14T10:17:56.244Z,99888.55
2019-01-14T10:20:25.090Z,99895.81
2019-01-14T10:22:56.839Z,99899.30
2019-01-14T10:25:25.815Z,99897.22
2019-01-14T10:27:55.090Z,99906.22
2019-01-14T10:30:24.553Z,99903.59
2019-01-14T10:32:53.552Z,99902.78
2019-01-14T10:35:22.297Z,99904.92
2019-01-14T10:37:51.590Z,99898.94
2019-01-14T10:40:23.517Z,99894.21
2019-01-14T10:42:52.599Z,99896.37
2019-01-14T10:45:22.779Z,99897.20
2019-01-14T10:47:52.606Z,99905.34
2019-01-14T10:50:21.610Z,99910.76
2019-01-14T10:52:50.369Z,99916.92
2019-01-14T10:55:19.284Z,99906.23
2019-01-14T10:57:49.351Z,99917.35
2019-01-14T11:00:20.597Z,99916.89
2019-01-14T11:02:49.473Z,99923.37
2019-01-14T11:05:22.476Z,99916.06
2019-01-14T11:07:52.303Z,99914.78
2019-01-14T11:10:22.392Z,99915.02
2019-01-14T11:12:54.924Z,99932.83
2019-01-14T11:15:23.579Z,99926.78
2019-01-14T11:17:52.702Z,99931.32
2019-01-14T11:20:26.667Z,99943.64
2019-01-14T11:22:54.886Z,99942.38
2019-01-14T11:25:23.528Z,99944.06
2019-01-14T11:27:52.608Z,99944.36
2019-01-14T11:30:32.409Z,99950.39
2019-01-14T11:33:01.274Z,99948.77
2019-01-14T11:35:29.896Z,99955.41
2019-01-14T11:37:58.673Z,99955.78
2019-01-14T11:40:36.425Z,99958.80
2019-01-14T11:43:05.046Z,99967.70
2019-01-14T11:45:34.227Z,99968.56
2019-01-14T11:48:03.097Z,99973.66
2019-01-14T11:50:31.848Z,99980.53
2019-01-14T11:53:01.228Z,99981.86
2019-01-14T11:55:38.174Z,99995.84
2019-01-14T11:58:15.035Z,99991.10
2019-01-14T12:00:47.700Z,99989.18
2019-01-14T12:03:16.426Z,99992.98
2019-01-14T12:05:44.944Z,99999.66
2019-01-14T12:08:14.015Z,99997.50
2019-01-14T12:10:45.085Z,99994.26
2019-01-14T12:13:13.986Z,99999.19
2019-01-14T12:15:42.757Z,99998.77
2019-01-14T12:18:12.903Z,99994.84
2019-01-14T12:20:41.645Z,99994.91
2019-01-14T12:23:11.008Z,100002.30
2019-01-14T12:25:40.583Z,100004.31
2019-01-14T12:28:10.565Z,99996.84
2019-01-14T12:30:41.613Z,99996.97
2019-01-14T12:33:10.566Z,100006.58
2019-01-14T12:35:39.235Z,100022.31
2019-01-14T12:38:10.668Z,100009.34
2019-01-14T12:40:42.515Z,100013.89
2019-01-14T12:43:11.742Z,100011.91
2019-01-14T12:45:40.400Z,100011.43
2019-01-14T12:48:12.186Z,100014.98
2019-01-14T12:50:42.086Z,100021.27
2019-01-14T12:53:14.070Z,100024.39
2019-01-14T12:55:45.846Z,100026.77
2019-01-14T12:58:14.949Z,100018.39
2019-01-14T13:00:45.164Z,100023.47
2019-01-14T13:03:14.309Z,100029.16
2019-01-14T13:05:43.028Z,100040.75
2019-01-14T13:08:12.701Z,100048.70
2019-01-14T13:10:42.399Z,100053.34
2019-01-14T13:13:11.542Z,100071.46
2019-01-14T13:15:40.334Z,100082.69
2019-01-14T13:18:08.982Z,100099.62
2019-01-14T13:20:37.711Z,100081.98
2019-01-14T13:23:06.828Z,100068.25
2019-01-14T13:25:36.684Z,100068.25
2019-01-14T13:28:05.615Z,100099.53
2019-01-14T13:30:37.290Z,100097.86
2019-01-14T13:33:06.426Z,100060.70
2019-01-14T13:35:35.612Z,100060.70
2019-01-14T13:38:04.673Z,100071.08
2019-01-14T13:40:33.450Z,100071.08
2019-01-14T13:43:02.451Z,100074.53
2019-01-14T13:45:31.876Z,100074.30
2019-01-14T13:48:00.795Z,100085.02
2019-01-14T13:50:29.886Z,100087.27
2019-01-14T13:53:01.906Z,100085.69
2019-01-14T13:55:33.305Z,100093.92
2019-01-14T13:58:02.123Z,100090.84
2019-01-14T14:00:34.066Z,100085.06
2019-01-14T14:03:03.526Z,100081.74
2019-01-14T14:05:32.272Z,100092.72
2019-01-14T14:08:01.391Z,100100.77
2019-01-14T14:10:31.493Z,100104.66
2019-01-14T14:13:01.388Z,100111.88
2019-01-14T14:15:30.213Z,100119.81
2019-01-14T14:17:58.842Z,100129.02
2019-01-14T14:20:27.406Z,100124.97
2019-01-14T14:22:59.712Z,100122.32
2019-01-14T14:25:28.548Z,100131.70
2019-01-14T14:27:57.195Z,100139.95
2019-01-14T14:30:28.737Z,100150.36
2019-01-14T14:32:57.905Z,100138.07
2019-01-14T14:35:26.946Z,100143.24
2019-01-14T14:38:01.371Z,100145.90
2019-01-14T14:40:29.108Z,100145.90
2019-01-14T14:42:57.852Z,100144.11
2019-01-14T14:45:29.362Z,100145.77
2019-01-14T14:48:04.909Z,100156.12
2019-01-14T14:50:49.190Z,100160.78
2019-01-14T14:53:29.789Z,100166.62
2019-01-14T14:56:00.322Z,100168.77
2019-01-14T14:58:28.946Z,100169.17
2019-01-14T15:00:58.154Z,100180.94
2019-01-14T15:03:27.117Z,100173.30
2019-01-14T15:05:56.351Z,100182.79
2019-01-14T15:08:27.989Z,100177.93
2019-01-14T15:10:57.730Z,100180.88
2019-01-14T15:13:27.693Z,100178.19
2019-01-14T15:15:56.417Z,100177.93
2019-01-14T15:18:25.058Z,100182.75
2019-01-14T15:20:54.212Z,100189.11
2019-01-14T15:23:24.037Z,100195.98
2019-01-14T15:25:54.591Z,100194.83
2019-01-14T15:28:23.440Z,100191.62
2019-01-14T15:30:52.186Z,100196.67
2019-01-14T15:33:24.150Z,100204.41
2019-01-14T15:35:53.445Z,100215.70
2019-01-14T15:38:22.018Z,100215.83
2019-01-14T15:40:52.134Z,100208.92
2019-01-14T15:43:21.736Z,100209.02
2019-01-14T15:45:50.998Z,100212.91
2019-01-14T15:48:29.420Z,100228.16
2019-01-14T15:51:09.812Z,100237.47
2019-01-14T15:53:39.897Z,100243.22
2019-01-14T15:56:08.692Z,100247.88
2019-01-14T15:58:37.481Z,100253.03
2019-01-14T16:01:07.257Z,100253.06
2019-01-14T16:03:36.086Z,100257.59
2019-01-14T16:06:04.735Z,100252.55
2019-01-14T16:08:34.051Z,100260.16
2019-01-14T16:11:02.811Z,100262.69
2019-01-14T16:13:32.448Z,100262.20
2019-01-14T16:16:01.146Z,100268.63
2019-01-14T16:18:30.390Z,100270.80
2019-01-14T16:20:59.081Z,100270.77
2019-01-14T16:23:28.576Z,100276.84
2019-01-14T16:26:04.791Z,100281.89
2019-01-14T16:28:37.133Z,100287.52
2019-01-14T16:31:06.278Z,100293.05
2019-01-14T16:33:37.820Z,100302.42
2019-01-14T16:36:06.573Z,100304.14
2019-01-14T16:38:38.446Z,100302.90
2019-01-14T16:41:07.560Z,100305.33
2019-01-14T16:43:38.974Z,100316.48
2019-01-14T16:46:07.668Z,100310.57
2019-01-14T16:48:36.350Z,100312.30
2019-01-14T16:51:05.752Z,100315.63
2019-01-14T16:53:34.656Z,100325.05
2019-01-14T16:56:04.220Z,100329.58
2019-01-14T16:58:34.532Z,100318.42
2019-01-14T17:01:05.656Z,100323.47
2019-01-14T17:03:35.112Z,100330.20
2019-01-14T17:06:07.491Z,100330.97
2019-01-14T17:08:36.581Z,100330.66
2019-01-14T17:11:08.324Z,100333.97
2019-01-14T17:13:38.710Z,100341.47
2019-01-14T17:16:10.117Z,100336.66
2019-01-14T17:18:39.020Z,100333.23
2019-01-14T17:21:07.787Z,100347.41
2019-01-14T17:23:36.528Z,100356.34
2019-01-14T17:26:05.145Z,100360.29
2019-01-14T17:28:33.751Z,100367.02
2019-01-14T17:31:05.490Z,100375.07
2019-01-14T17:33:34.262Z,100379.73
2019-01-14T17:36:03.576Z,100367.78
2019-01-14T17:38:32.739Z,100375.75
2019-01-14T17:41:02.371Z,100389.92
2019-01-14T17:43:32.388Z,100389.51
2019-01-14T17:46:01.027Z,100385.67
2019-01-14T17:48:31.232Z,100385.78
2019-01-14T17:51:00.380Z,100387.44
2019-01-14T17:53:31.443Z,100378.68
2019-01-14T17:56:01.089Z,100388.75
2019-01-14T17:58:29.861Z,100396.45
2019-01-14T18:00:58.623Z,100397.73
2019-01-14T18:03:27.745Z,100405.77
2019-01-14T18:05:56.584Z,100403.26
2019-01-14T18:11:04.548Z,100414.45
2019-01-14T18:13:37.098Z,100421.38
2019-01-14T18:16:06.845Z,100419.53
2019-01-14T18:18:36.610Z,100426.00
2019-01-14T18:21:13.379Z,100437.17
2019-01-14T18:23:41.170Z,100434.16
2019-01-14T18:26:11.929Z,100438.82
2019-01-14T18:28:44.625Z,100442.16
2019-01-14T18:31:16.718Z,100441.00
2019-01-14T18:33:48.747Z,100449.12
2019-01-14T18:36:19.018Z,100453.66
2019-01-14T18:38:48.741Z,100463.47
2019-01-14T18:41:21.393Z,100460.17
2019-01-14T18:43:51.054Z,100466.03
2019-01-14T18:46:22.647Z,100467.72
2019-01-14T18:48:51.847Z,100472.01
2019-01-14T18:51:23.135Z,100470.77
2019-01-14T18:53:56.015Z,100480.66
2019-01-14T18:56:25.529Z,100478.89
2019-01-14T18:58:56.160Z,100477.57
2019-01-14T19:01:27.373Z,100480.17
2019-01-14T19:03:59.751Z,100484.33
2019-01-14T19:06:32.010Z,100489.53
2019-01-14T19:09:01.217Z,100496.74
2019-01-14T19:11:30.763Z,100502.76
2019-01-14T19:14:00.144Z,100506.14
2019-01-14T19:16:30.241Z,100499.30
2019-01-14T19:18:59.920Z,100498.92
2019-01-14T19:21:29.649Z,100493.85
2019-01-14T19:24:02.673Z,100488.29
2019-01-14T19:26:33.084Z,100498.76
2019-01-14T19:29:02.569Z,100505.11
2019-01-14T19:31:42.798Z,100517.10
2019-01-14T19:34:12.661Z,100517.88
2019-01-14T19:36:51.164Z,100520.52
2019-01-14T19:39:22.875Z,100520.40
2019-01-14T19:41:55.028Z,100530.78
2019-01-14T19:44:27.366Z,100533.75
2019-01-14T19:46:56.767Z,100527.32
2019-01-14T19:49:33.655Z,100535.44
2019-01-14T19:52:03.319Z,100545.16
2019-01-14T19:54:33.049Z,100540.91
2019-01-14T19:57:12.423Z,100544.80
2019-01-14T19:59:41.446Z,100546.34
2019-01-14T20:02:15.182Z,100545.94
2019-01-14T20:04:47.757Z,100553.06
2019-01-14T20:07:16.963Z,100546.94
2019-01-14T20:09:54.823Z,100545.06
2019-01-14T20:12:28.189Z,100559.22
2019-01-14T20:15:00.786Z,100564.55
2019-01-14T20:17:31.569Z,100567.52
2019-01-14T20:20:01.181Z,100578.28
2019-01-14T20:22:32.304Z,100578.97
2019-01-14T20:25:03.187Z,100581.70
2019-01-14T20:27:35.960Z,100584.81
2019-01-14T20:30:09.483Z,100585.64
2019-01-14T20:32:38.914Z,100583.99
2019-01-14T20:35:07.612Z,100589.97
2019-01-14T20:37:36.443Z,100586.81
2019-01-14T20:40:07.690Z,100576.28
2019-01-14T20:42:36.533Z,100582.11
2019-01-14T20:45:06.839Z,100580.94
2019-01-14T20:47:37.681Z,100585.58
2019-01-14T20:50:08.077Z,100587.67
2019-01-14T20:52:38.925Z,100592.50
2019-01-14T20:55:08.182Z,100589.97
2019-01-14T20:57:37.763Z,100592.83
2019-01-14T21:00:12.077Z,100587.31
2019-01-14T21:02:41.471Z,100594.11
2019-01-14T21:05:11.641Z,100593.16
2019-01-14T21:07:41.260Z,100587.72
2019-01-14T21:10:11.706Z,100587.00
2019-01-14T21:12:40.442Z,100589.19
2019-01-14T21:15:11.505Z,100591.28
2019-01-14T21:17:40.466Z,100593.20
2019-01-14T21:20:12.572Z,100594.48
2019-01-14T21:22:41.215Z,100591.20
2019-01-14T21:25:09.786Z,100588.49
2019-01-14T21:31:03.156Z,100594.02
2019-01-14T21:33:34.512Z,100597.22
2019-01-14T21:36:03.407Z,100596.17
2019-01-14T21:38:31.932Z,100587.73
2019-01-14T21:41:00.526Z,100589.59
2019-01-14T21:43:29.657Z,100589.41
2019-01-14T21:46:01.573Z,100591.61
2019-01-14T21:48:30.414Z,100584.67
2019-01-14T21:51:00.500Z,100590.69
2019-01-14T21:53:29.389Z,100594.80
2019-01-14T21:55:58.730Z,100597.56
2019-01-14T21:58:27.097Z,100600.29
2019-01-14T22:00:55.442Z,100599.42
2019-01-14T22:03:24.766Z,100601.42
2019-01-14T22:05:56.630Z,100608.22
2019-01-14T22:08:25.182Z,100607.99
2019-01-14T22:10:54.370Z,100607.34
2019-01-14T22:13:23.624Z,100613.46
2019-01-14T22:15:52.691Z,100618.31
2019-01-14T22:18:22.190Z,100630.73
2019-01-14T22:20:54.000Z,100621.78
2019-01-14T22:23:24.798Z,100620.16
2019-01-14T22:25:54.354Z,100622.80
2019-01-14T22:28:22.979Z,100621.27
2019-01-14T22:30:51.249Z,100629.75
2019-01-14T22:33:20.392Z,100629.70
2019-01-14T22:35:49.113Z,100628.33
2019-01-14T22:38:18.915Z,100635.42
2019-01-14T22:40:47.791Z,100635.02
2019-01-14T22:43:17.433Z,100635.02
2019-01-14T22:45:46.464Z,100633.31
2019-01-14T22:48:14.854Z,100632.16
2019-01-14T22:50:46.609Z,100637.50
2019-01-14T22:53:16.422Z,100640.87
2019-01-14T22:55:46.336Z,100640.87
2019-01-14T22:58:14.908Z,100637.14
2019-01-14T23:01:16.228Z,100631.08
2019-01-14T23:03:49.368Z,100629.81
2019-01-14T23:06:18.798Z,100626.84
2019-01-14T23:08:48.701Z,100602.72
2019-01-14T23:11:17.845Z,100620.06
2019-01-14T23:13:47.078Z,100614.55
2019-01-14T23:16:16.087Z,100617.97
2019-01-14T23:18:45.180Z,100618.48
2019-01-14T23:21:17.205Z,100621.34
2019-01-14T23:23:46.056Z,100610.12
2019-01-14T23:26:15.402Z,100610.12
2019-01-14T23:28:47.377Z,100611.91
2019-01-14T23:31:16.126Z,100611.91
2019-01-14T23:33:46.013Z,100682.27
2019-01-14T23:36:15.206Z,100623.34
2019-01-14T23:38:43.829Z,100632.72
2019-01-14T23:41:13.626Z,100631.09
2019-01-14T23:43:45.998Z,100634.88
2019-01-14T23:46:14.459Z,100634.88
2019-01-14T23:48:43.919Z,100635.23
2019-01-14T23:51:12.395Z,100640.06
2019-01-14T23:53:46.639Z,100645.62
2019-01-14T23:56:15.931Z,100643.53
2019-01-14T23:58:47.245Z,100637.75
